Time;durP1;ratioP1;P1;durP2;ratioP2;P2;SDS_P1;SDS_P2;PMS_P1;PMS_P2;Temp;Humidity;BMP_temperature;BMP_pressure;BME280_temperature;BME280_humidity;BME280_pressure;Samples;Min_cycle;Max_cycle;Signal;HPM_P1;HPM_P2
2022/08/18 00:01:47;;;;;;;;;;;22.40;75.80;;;;;;5070239;28;20313;-64
2022/08/18 00:04:13;;;;;;;;;;;22.40;76.00;;;;;;5069871;28;20432;-64
2022/08/18 00:06:39;;;;;;;;;;;22.30;76.20;;;;;;5067925;28;19916;-64
2022/08/18 00:09:05;;;;;;;;;;;22.40;76.60;;;;;;5066163;28;19919;-64
2022/08/18 00:11:33;;;;;;;;;;;22.30;76.40;;;;;;5066711;28;19913;-64
2022/08/18 00:13:59;;;;;;;;;;;22.30;76.20;;;;;;5067249;28;19920;-64
2022/08/18 00:16:24;;;;;;;;;;;22.30;76.20;;;;;;5073342;28;19963;-64
2022/08/18 00:18:50;;;;;;;;;;;22.30;76.30;;;;;;5067110;28;19919;-64
2022/08/18 00:21:16;;;;;;;;;;;22.20;76.50;;;;;;5066304;28;20825;-65
2022/08/18 00:23:41;;;;;;;;;;;22.20;76.50;;;;;;5072479;28;20013;-64
2022/08/18 00:26:07;;;;;;;;;;;22.20;76.80;;;;;;5081933;28;19970;-64
2022/08/18 00:28:32;;;;;;;;;;;22.20;76.80;;;;;;5066748;28;19912;-64
2022/08/18 00:30:58;;;;;;;;;;;22.10;76.90;;;;;;5066562;28;19913;-64
2022/08/18 00:33:23;;;;;;;;;;;22.10;77.00;;;;;;5069255;28;19944;-64
2022/08/18 00:35:49;;;;;;;;;;;22.10;77.10;;;;;;5066812;28;19999;-64
2022/08/18 00:38:14;;;;;;;;;;;22.10;76.90;;;;;;5067702;28;19908;-64
2022/08/18 00:40:47;;;;;;;;;;;22.10;77.10;;;;;;5065833;28;19912;-64
2022/08/18 00:43:14;;;;;;;;;;;22.10;77.30;;;;;;5079640;28;20669;-64
2022/08/18 00:45:41;;;;;;;;;;;22.00;77.30;;;;;;5085690;28;19916;-64
2022/08/18 00:48:09;;;;;;;;;;;22.00;77.30;;;;;;5066006;28;19912;-64
2022/08/18 00:50:45;;;;;;;;;;;22.00;77.40;;;;;;5066199;28;19916;-64
2022/08/18 00:53:20;;;;;;;;;;;22.00;77.30;;;;;;5080584;28;19962;-64
2022/08/18 00:55:47;;;;;;;;;;;22.00;77.40;;;;;;5082216;28;19931;-64
2022/08/18 00:58:20;;;;;;;;;;;22.00;77.50;;;;;;5065953;28;20707;-64
2022/08/18 01:00:47;;;;;;;;;;;22.00;77.60;;;;;;5065903;28;20369;-64
2022/08/18 01:03:14;;;;;;;;;;;21.90;77.80;;;;;;5072059;28;19916;-65
2022/08/18 01:05:52;;;;;;;;;;;21.90;77.90;;;;;;5066704;28;19917;-64
2022/08/18 01:08:17;;;;;;;;;;;21.90;77.70;;;;;;5066794;28;19946;-65
2022/08/18 01:10:44;;;;;;;;;;;21.90;77.80;;;;;;5065405;28;19920;-64
2022/08/18 01:13:09;;;;;;;;;;;21.80;77.80;;;;;;5070947;28;20541;-64
2022/08/18 01:15:35;;;;;;;;;;;21.80;78.00;;;;;;5072800;28;19955;-65
2022/08/18 01:23:32;;;;;;;;;;;21.80;78.10;;;;;;5066057;28;19930;-64
2022/08/18 01:26:02;;;;;;;;;;;21.70;78.30;;;;;;5066005;28;20657;-64
2022/08/18 01:28:32;;;;;;;;;;;21.70;78.30;;;;;;5065407;28;19916;-66
2022/08/18 01:30:58;;;;;;;;;;;21.70;78.40;;;;;;5078786;28;20795;-67
2022/08/18 01:33:26;;;;;;;;;;;21.70;78.50;;;;;;5081805;28;20653;-66
2022/08/18 01:35:52;;;;;;;;;;;21.70;78.40;;;;;;5077990;28;20003;-67
2022/08/18 01:38:19;;;;;;;;;;;21.70;78.40;;;;;;5085608;28;19955;-67
2022/08/18 01:40:45;;;;;;;;;;;21.70;78.40;;;;;;5085377;28;20268;-67
2022/08/18 01:43:11;;;;;;;;;;;21.60;78.50;;;;;;5085741;28;19915;-67
2022/08/18 01:45:36;;;;;;;;;;;21.60;78.70;;;;;;5082444;28;19916;-67
2022/08/18 01:48:03;;;;;;;;;;;21.60;78.50;;;;;;5078509;28;19949;-67
2022/08/18 01:50:30;;;;;;;;;;;21.60;78.50;;;;;;5085062;28;20356;-66
2022/08/18 01:52:55;;;;;;;;;;;21.60;78.70;;;;;;5085291;28;20256;-67
2022/08/18 01:55:21;;;;;;;;;;;21.60;78.70;;;;;;5085293;28;19999;-66
2022/08/18 01:57:46;;;;;;;;;;;21.50;78.60;;;;;;5085183;28;19958;-67
2022/08/18 02:00:13;;;;;;;;;;;21.50;78.80;;;;;;5087706;28;19981;-67
2022/08/18 02:02:40;;;;;;;;;;;21.50;79.00;;;;;;5080938;28;20657;-66
2022/08/18 02:05:08;;;;;;;;;;;21.50;78.90;;;;;;5069668;28;19915;-67
2022/08/18 02:07:34;;;;;;;;;;;21.50;78.90;;;;;;5069531;28;19934;-67
2022/08/18 02:10:00;;;;;;;;;;;21.50;78.90;;;;;;5068003;28;19920;-66
2022/08/18 02:12:26;;;;;;;;;;;21.50;79.50;;;;;;5069475;28;19966;-67
2022/08/18 02:14:52;;;;;;;;;;;21.50;79.80;;;;;;5069332;28;20360;-66
2022/08/18 02:17:17;;;;;;;;;;;21.40;79.10;;;;;;5074982;28;20754;-67
2022/08/18 02:19:44;;;;;;;;;;;21.40;78.80;;;;;;5070178;28;19916;-67
2022/08/18 02:22:12;;;;;;;;;;;21.40;78.60;;;;;;5068979;28;19944;-67
2022/08/18 02:24:37;;;;;;;;;;;21.50;79.10;;;;;;5081111;28;19966;-67
2022/08/18 02:27:03;;;;;;;;;;;21.40;79.10;;;;;;5069169;28;20363;-67
2022/08/18 02:29:29;;;;;;;;;;;21.40;79.00;;;;;;5068827;28;20014;-67
2022/08/18 02:31:54;;;;;;;;;;;21.40;78.60;;;;;;5070729;28;19961;-67
2022/08/18 02:34:20;;;;;;;;;;;21.40;78.70;;;;;;5069006;28;19948;-67
2022/08/18 02:36:45;;;;;;;;;;;21.40;78.70;;;;;;5072074;28;19908;-67
2022/08/18 02:39:11;;;;;;;;;;;21.40;78.90;;;;;;5068499;28;19950;-67
2022/08/18 02:41:36;;;;;;;;;;;21.40;78.80;;;;;;5068557;28;19917;-66
2022/08/18 02:44:03;;;;;;;;;;;21.40;79.10;;;;;;5067794;28;20748;-67
2022/08/18 02:46:29;;;;;;;;;;;21.40;78.60;;;;;;5076191;28;19919;-67
2022/08/18 02:48:55;;;;;;;;;;;21.40;78.80;;;;;;5082859;28;19909;-67
2022/08/18 02:51:21;;;;;;;;;;;21.30;78.70;;;;;;5074082;28;19913;-67
2022/08/18 02:53:46;;;;;;;;;;;21.40;79.50;;;;;;5086765;28;19916;-67
2022/08/18 02:56:23;;;;;;;;;;;21.40;79.50;;;;;;5087817;28;19923;-67
2022/08/18 02:58:52;;;;;;;;;;;21.30;79.40;;;;;;5087719;28;19969;-67
2022/08/18 03:01:18;;;;;;;;;;;21.30;79.50;;;;;;5087616;28;19958;-67
2022/08/18 03:03:44;;;;;;;;;;;21.30;79.50;;;;;;5076662;28;20011;-67
2022/08/18 03:06:09;;;;;;;;;;;21.30;79.70;;;;;;5068888;28;20600;-67
2022/08/18 03:08:35;;;;;;;;;;;21.30;79.50;;;;;;5076941;28;19908;-67
2022/08/18 03:11:00;;;;;;;;;;;21.30;79.60;;;;;;5083764;28;20003;-67
2022/08/18 03:13:26;;;;;;;;;;;21.30;79.70;;;;;;5070622;28;19915;-67
2022/08/18 03:15:52;;;;;;;;;;;21.30;79.50;;;;;;5072551;28;19913;-67
2022/08/18 03:18:17;;;;;;;;;;;21.30;79.60;;;;;;5069522;28;19935;-67
2022/08/18 03:20:43;;;;;;;;;;;21.30;79.80;;;;;;5067591;28;19916;-67
2022/08/18 03:23:09;;;;;;;;;;;21.30;79.40;;;;;;5067396;28;19920;-67
2022/08/18 03:25:34;;;;;;;;;;;21.30;79.30;;;;;;5067523;28;19925;-67
2022/08/18 03:28:01;;;;;;;;;;;21.30;79.50;;;;;;5074555;28;20006;-67
2022/08/18 03:30:26;;;;;;;;;;;21.20;79.60;;;;;;5074658;28;19967;-67
2022/08/18 03:32:52;;;;;;;;;;;21.30;79.80;;;;;;5075418;28;19930;-67
2022/08/18 03:35:18;;;;;;;;;;;21.30;79.70;;;;;;5067505;28;20376;-67
2022/08/18 03:37:43;;;;;;;;;;;21.30;79.60;;;;;;5066767;28;19912;-67
2022/08/18 03:40:12;;;;;;;;;;;21.20;79.40;;;;;;5067061;28;20019;-67
2022/08/18 03:42:38;;;;;;;;;;;21.30;79.20;;;;;;5099755;28;19913;-67
2022/08/18 03:45:05;;;;;;;;;;;21.20;79.60;;;;;;5071297;28;19990;-67
2022/08/18 03:47:31;;;;;;;;;;;21.20;79.70;;;;;;5071322;28;19912;-67
2022/08/18 03:49:58;;;;;;;;;;;21.20;79.40;;;;;;5067442;28;20368;-67
2022/08/18 03:52:23;;;;;;;;;;;21.20;79.10;;;;;;5066992;28;19927;-68
2022/08/18 03:54:49;;;;;;;;;;;21.20;79.30;;;;;;5067071;28;19916;-66
2022/08/18 03:57:14;;;;;;;;;;;21.20;79.70;;;;;;5086815;28;19953;-66
2022/08/18 03:59:42;;;;;;;;;;;21.20;79.70;;;;;;5086427;28;20006;-67
2022/08/18 04:02:08;;;;;;;;;;;21.20;79.30;;;;;;5083107;28;20037;-67
2022/08/18 04:04:34;;;;;;;;;;;21.20;79.50;;;;;;5072051;28;19912;-67
2022/08/18 04:07:03;;;;;;;;;;;21.20;79.80;;;;;;5067003;28;19916;-67
2022/08/18 04:09:29;;;;;;;;;;;21.20;79.60;;;;;;5066894;28;20356;-67
2022/08/18 04:11:56;;;;;;;;;;;21.20;79.90;;;;;;5083918;28;19909;-67
2022/08/18 04:14:23;;;;;;;;;;;21.20;79.50;;;;;;5067916;28;19919;-67
2022/08/18 04:16:49;;;;;;;;;;;21.20;79.10;;;;;;5073609;28;20065;-66
2022/08/18 04:19:16;;;;;;;;;;;21.20;79.40;;;;;;5067418;28;20652;-67
2022/08/18 04:21:43;;;;;;;;;;;21.20;79.70;;;;;;5065783;28;19926;-67
2022/08/18 04:24:09;;;;;;;;;;;21.20;79.30;;;;;;5067131;28;19927;-67
2022/08/18 04:26:36;;;;;;;;;;;21.20;79.40;;;;;;5067004;28;20237;-67
2022/08/18 04:29:03;;;;;;;;;;;21.20;79.70;;;;;;5066887;28;19912;-68
2022/08/18 04:31:29;;;;;;;;;;;21.20;79.40;;;;;;5067143;28;19912;-67
2022/08/18 04:33:57;;;;;;;;;;;21.20;79.50;;;;;;5072112;28;20001;-67
2022/08/18 04:36:22;;;;;;;;;;;21.20;79.10;;;;;;5066634;28;19919;-68
2022/08/18 04:38:48;;;;;;;;;;;21.20;79.10;;;;;;5081441;28;20353;-67
2022/08/18 04:41:14;;;;;;;;;;;21.10;78.90;;;;;;5069646;28;19913;-67
2022/08/18 04:43:40;;;;;;;;;;;21.10;79.40;;;;;;5066329;28;20246;-67
2022/08/18 04:46:06;;;;;;;;;;;21.10;79.20;;;;;;5072430;28;19908;-67
2022/08/18 04:48:41;;;;;;;;;;;21.10;79.30;;;;;;5068538;28;20292;-69
2022/08/18 04:51:08;;;;;;;;;;;21.10;79.40;;;;;;5068835;28;19981;-67
2022/08/18 04:53:43;;;;;;;;;;;21.10;79.30;;;;;;5083059;28;19908;-67
2022/08/18 04:56:12;;;;;;;;;;;21.10;79.30;;;;;;5086099;28;19912;-67
2022/08/18 04:58:38;;;;;;;;;;;21.10;79.00;;;;;;5086335;28;19939;-67
2022/08/18 05:01:03;;;;;;;;;;;21.10;79.20;;;;;;5082597;28;20611;-67
2022/08/18 05:03:29;;;;;;;;;;;21.10;79.20;;;;;;5071924;28;20376;-67
2022/08/18 05:05:57;;;;;;;;;;;21.10;78.70;;;;;;5066394;28;20016;-67
2022/08/18 05:08:23;;;;;;;;;;;21.10;78.70;;;;;;5066462;28;19912;-67
2022/08/18 05:10:53;;;;;;;;;;;21.10;78.90;;;;;;5073836;28;19923;-67
2022/08/18 05:13:19;;;;;;;;;;;21.10;78.90;;;;;;5067850;28;20403;-67
2022/08/18 05:15:44;;;;;;;;;;;21.10;78.80;;;;;;5068251;28;20008;-67
2022/08/18 05:18:10;;;;;;;;;;;21.10;78.90;;;;;;5069760;28;20544;-67
2022/08/18 05:20:36;;;;;;;;;;;21.10;79.10;;;;;;5065843;28;19969;-67
2022/08/18 05:23:02;;;;;;;;;;;21.10;79.00;;;;;;5066328;28;20706;-67
2022/08/18 05:25:28;;;;;;;;;;;21.10;78.90;;;;;;5066350;28;19952;-67
2022/08/18 05:27:54;;;;;;;;;;;21.10;79.20;;;;;;5068878;28;19927;-67
2022/08/18 05:30:20;;;;;;;;;;;21.10;78.80;;;;;;5070966;28;19913;-67
2022/08/18 05:32:46;;;;;;;;;;;21.10;78.80;;;;;;5081670;28;19908;-67
2022/08/18 05:35:15;;;;;;;;;;;21.10;79.10;;;;;;5089653;28;19965;-67
2022/08/18 05:38:01;;;;;;;;;;;21.10;78.80;;;;;;5089040;28;19911;-67
2022/08/18 05:40:27;;;;;;;;;;;21.10;78.90;;;;;;5085216;28;20378;-67
2022/08/18 05:42:55;;;;;;;;;;;21.10;78.90;;;;;;5068741;28;20610;-67
2022/08/18 05:45:20;;;;;;;;;;;21.10;78.80;;;;;;5072862;28;19912;-67
2022/08/18 05:47:46;;;;;;;;;;;21.10;78.80;;;;;;5073555;28;19935;-67
2022/08/18 05:50:17;;;;;;;;;;;21.10;78.80;;;;;;5069731;28;19955;-67
2022/08/18 05:52:57;;;;;;;;;;;21.10;78.90;;;;;;5069767;28;19912;-67
2022/08/18 05:58:17;;;;;;;;;;;21.00;78.80;;;;;;5069950;28;20066;-67
2022/08/18 06:00:46;;;;;;;;;;;21.10;78.90;;;;;;5070169;28;19916;-67
2022/08/18 06:03:38;;;;;;;;;;;21.10;79.00;;;;;;5075286;28;20372;-67
2022/08/18 06:06:15;;;;;;;;;;;21.10;78.90;;;;;;5060947;28;19912;-66
2022/08/18 06:08:42;;;;;;;;;;;21.10;78.90;;;;;;5114274;27;19919;-67
2022/08/18 06:11:08;;;;;;;;;;;21.10;78.90;;;;;;5073347;28;19924;-67
2022/08/18 06:13:39;;;;;;;;;;;21.10;78.90;;;;;;5070802;28;19909;-66
2022/08/18 06:16:10;;;;;;;;;;;21.10;79.10;;;;;;5087729;28;19969;-67
2022/08/18 06:18:45;;;;;;;;;;;21.10;78.90;;;;;;5069741;28;19912;-67
2022/08/18 06:21:31;;;;;;;;;;;21.10;79.00;;;;;;5082427;28;19944;-67
2022/08/18 06:24:21;;;;;;;;;;;21.10;78.80;;;;;;5072461;28;19923;-67
2022/08/18 06:27:10;;;;;;;;;;;21.10;78.90;;;;;;5069578;28;19912;-67
2022/08/18 06:29:46;;;;;;;;;;;21.10;78.80;;;;;;5074232;28;19987;-67
2022/08/18 06:32:29;;;;;;;;;;;21.10;78.70;;;;;;5085944;28;19955;-67
2022/08/18 06:35:13;;;;;;;;;;;21.10;78.80;;;;;;5069562;28;19970;-67
2022/08/18 06:38:37;;;;;;;;;;;21.20;78.90;;;;;;5079338;28;19922;-67
2022/08/18 06:40:24;;;;;;;;;;;21.20;78.90;;;;;;5070728;28;19916;-67
2022/08/18 06:42:50;;;;;;;;;;;21.20;78.90;;;;;;5068927;28;19919;-67
2022/08/18 06:45:17;;;;;;;;;;;21.20;79.60;;;;;;5070205;28;19913;-66
2022/08/18 06:47:53;;;;;;;;;;;21.20;79.00;;;;;;5072848;28;19966;-67
2022/08/18 06:50:35;;;;;;;;;;;21.20;78.90;;;;;;5083819;28;20643;-67
2022/08/18 06:53:03;;;;;;;;;;;21.20;78.90;;;;;;5074561;28;19942;-67
2022/08/18 06:55:55;;;;;;;;;;;21.20;78.90;;;;;;5068697;28;19912;-67
2022/08/18 06:58:24;;;;;;;;;;;21.20;78.80;;;;;;5082293;28;19954;-67
2022/08/18 07:00:50;;;;;;;;;;;21.20;78.80;;;;;;5087912;28;19970;-67
2022/08/18 07:03:17;;;;;;;;;;;21.20;78.80;;;;;;5081855;28;19908;-67
2022/08/18 07:05:57;;;;;;;;;;;21.20;78.80;;;;;;5073387;28;19913;-67
2022/08/18 07:08:33;;;;;;;;;;;21.20;79.00;;;;;;5068938;28;19916;-67
2022/08/18 07:11:11;;;;;;;;;;;21.20;78.90;;;;;;5068247;28;19925;-67
2022/08/18 07:13:39;;;;;;;;;;;21.20;78.90;;;;;;5066872;28;19917;-67
2022/08/18 07:16:15;;;;;;;;;;;21.20;79.00;;;;;;5074265;28;19916;-67
2022/08/18 07:18:42;;;;;;;;;;;21.20;78.90;;;;;;5087689;28;19916;-67
2022/08/18 07:21:07;;;;;;;;;;;21.20;79.00;;;;;;5080090;28;20435;-67
2022/08/18 07:23:33;;;;;;;;;;;21.20;79.10;;;;;;5068098;28;19912;-66
2022/08/18 07:26:04;;;;;;;;;;;21.20;79.10;;;;;;5066692;28;19912;-67
2022/08/18 07:28:32;;;;;;;;;;;21.20;79.00;;;;;;5081442;28;20396;-67
2022/08/18 07:31:10;;;;;;;;;;;21.20;79.10;;;;;;5067827;28;19942;-67
2022/08/18 07:33:36;;;;;;;;;;;21.20;79.10;;;;;;5071181;28;19952;-67
2022/08/18 07:36:05;;;;;;;;;;;21.20;79.20;;;;;;5072497;28;20388;-67
2022/08/18 07:38:33;;;;;;;;;;;21.20;79.30;;;;;;5075309;28;20375;-67
2022/08/18 07:40:59;;;;;;;;;;;21.20;79.20;;;;;;5083134;28;20120;-67
2022/08/18 07:43:50;;;;;;;;;;;21.20;79.10;;;;;;5067961;28;20250;-67
2022/08/18 07:46:19;;;;;;;;;;;21.20;79.00;;;;;;5063575;28;19966;-67
2022/08/18 07:48:45;;;;;;;;;;;21.20;79.10;;;;;;5067944;28;19913;-67
2022/08/18 07:51:18;;;;;;;;;;;21.20;79.30;;;;;;5068786;28;19927;-69
2022/08/18 07:53:43;;;;;;;;;;;21.20;79.30;;;;;;5067985;28;20060;-67
2022/08/18 07:56:28;;;;;;;;;;;21.30;79.50;;;;;;5067758;28;20013;-67
2022/08/18 07:59:29;;;;;;;;;;;21.30;79.40;;;;;;5079670;28;19916;-67
2022/08/18 08:02:13;;;;;;;;;;;21.20;79.30;;;;;;5063661;28;19912;-67
2022/08/18 08:04:48;;;;;;;;;;;21.30;79.50;;;;;;5071071;28;19916;-67
2022/08/18 08:07:15;;;;;;;;;;;21.30;79.40;;;;;;5081463;28;19919;-67
2022/08/18 08:09:59;;;;;;;;;;;21.30;79.60;;;;;;5086915;28;20276;-67
2022/08/18 08:12:29;;;;;;;;;;;21.30;79.50;;;;;;5086560;28;19919;-67
2022/08/18 08:15:16;;;;;;;;;;;21.30;79.50;;;;;;5086712;28;20268;-67
2022/08/18 08:17:52;;;;;;;;;;;21.30;79.60;;;;;;5072606;28;19913;-69
2022/08/18 08:20:21;;;;;;;;;;;21.30;79.80;;;;;;5067043;28;19916;-67
2022/08/18 08:22:53;;;;;;;;;;;21.30;79.40;;;;;;5067020;28;19912;-67
2022/08/18 08:25:24;;;;;;;;;;;21.30;79.60;;;;;;5067041;28;20265;-67
2022/08/18 08:27:55;;;;;;;;;;;21.40;79.20;;;;;;5066993;28;19916;-67
2022/08/18 08:30:23;;;;;;;;;;;21.50;79.00;;;;;;5066804;28;20391;-67
2022/08/18 08:32:55;;;;;;;;;;;21.50;79.00;;;;;;5077802;28;19915;-67
2022/08/18 08:35:29;;;;;;;;;;;21.50;78.80;;;;;;5086111;28;20345;-67
2022/08/18 08:38:00;;;;;;;;;;;21.60;78.70;;;;;;5085995;28;19912;-67
2022/08/18 08:40:39;;;;;;;;;;;21.70;78.70;;;;;;5086041;28;20372;-67
2022/08/18 08:43:28;;;;;;;;;;;21.70;78.70;;;;;;5119152;27;19916;-67
2022/08/18 08:46:07;;;;;;;;;;;21.80;78.50;;;;;;5079528;28;19916;-67
2022/08/18 08:48:35;;;;;;;;;;;21.90;78.60;;;;;;5071697;28;19912;-67
2022/08/18 08:51:29;;;;;;;;;;;21.90;78.30;;;;;;5071882;28;19909;-67
2022/08/18 08:54:02;;;;;;;;;;;22.00;78.30;;;;;;5066188;28;20045;-67
2022/08/18 08:56:29;;;;;;;;;;;22.00;78.40;;;;;;5079186;28;20014;-67
2022/08/18 08:58:59;;;;;;;;;;;22.00;78.20;;;;;;5065748;28;19913;-68
2022/08/18 09:01:27;;;;;;;;;;;22.10;78.30;;;;;;5077296;28;19920;-70
2022/08/18 09:04:22;;;;;;;;;;;22.10;78.80;;;;;;5071372;28;19919;-67
2022/08/18 09:06:58;;;;;;;;;;;22.10;78.10;;;;;;5061489;28;19912;-67
2022/08/18 09:09:36;;;;;;;;;;;22.20;78.10;;;;;;5064447;28;19928;-67
2022/08/18 09:12:14;;;;;;;;;;;22.20;78.00;;;;;;5072822;28;20398;-67
2022/08/18 09:14:42;;;;;;;;;;;22.30;78.20;;;;;;5080011;28;19923;-68
2022/08/18 09:17:07;;;;;;;;;;;22.30;77.80;;;;;;5073912;28;20066;-67
2022/08/18 09:19:45;;;;;;;;;;;22.40;77.90;;;;;;5065110;28;20036;-67
2022/08/18 09:22:10;;;;;;;;;;;22.40;78.00;;;;;;5066079;28;20349;-67
2022/08/18 09:24:48;;;;;;;;;;;22.40;77.70;;;;;;5066268;28;19966;-67
2022/08/18 09:27:22;;;;;;;;;;;22.50;77.70;;;;;;5078309;28;19919;-67
2022/08/18 09:36:05;;;;;;;;;;;22.50;77.70;;;;;;5048325;28;19929;-65
2022/08/18 09:41:32;;;;;;;;;;;22.60;77.90;;;;;;5064604;28;20049;-65
2022/08/18 09:44:14;;;;;;;;;;;22.60;77.50;;;;;;5057364;28;19974;-65
2022/08/18 09:46:42;;;;;;;;;;;22.70;77.40;;;;;;5053435;28;20038;-64
2022/08/18 09:49:26;;;;;;;;;;;22.70;77.10;;;;;;5064761;28;19908;-64
2022/08/18 09:51:54;;;;;;;;;;;22.70;77.10;;;;;;5064419;28;19920;-64
2022/08/18 09:54:21;;;;;;;;;;;22.70;77.20;;;;;;5064899;28;19913;-65
2022/08/18 09:56:49;;;;;;;;;;;22.70;77.20;;;;;;5064631;28;19913;-65
2022/08/18 09:59:33;;;;;;;;;;;22.70;77.70;;;;;;5049213;28;19912;-65
2022/08/18 10:01:59;;;;;;;;;;;22.80;77.50;;;;;;5048496;28;20054;-65
2022/08/18 10:04:25;;;;;;;;;;;22.80;77.40;;;;;;5046925;28;20023;-65
2022/08/18 10:06:51;;;;;;;;;;;22.80;77.10;;;;;;5045343;28;20415;-65
2022/08/18 10:09:42;;;;;;;;;;;22.80;77.10;;;;;;5044247;28;19912;-64
2022/08/18 10:12:10;;;;;;;;;;;22.80;77.30;;;;;;5061987;28;19930;-64
2022/08/18 10:14:54;;;;;;;;;;;22.80;77.10;;;;;;5033608;28;19908;-65
2022/08/18 10:17:19;;;;;;;;;;;22.80;77.20;;;;;;5049790;28;19913;-65
2022/08/18 10:19:48;;;;;;;;;;;22.90;77.30;;;;;;5046282;28;19912;-64
2022/08/18 10:22:32;;;;;;;;;;;22.90;77.00;;;;;;5048945;28;19916;-64
2022/08/18 10:24:58;;;;;;;;;;;23.00;76.90;;;;;;5049083;28;20016;-64
2022/08/18 10:27:36;;;;;;;;;;;23.00;76.90;;;;;;5048895;28;20007;-64
2022/08/18 10:30:02;;;;;;;;;;;23.00;77.00;;;;;;5049899;28;19916;-65
2022/08/18 10:32:39;;;;;;;;;;;23.00;77.00;;;;;;5052204;28;20736;-64
2022/08/18 10:35:24;;;;;;;;;;;23.00;77.10;;;;;;5048473;28;19928;-65
2022/08/18 10:37:50;;;;;;;;;;;22.90;77.00;;;;;;5048022;28;19912;-64
2022/08/18 10:40:18;;;;;;;;;;;23.00;76.90;;;;;;5048579;28;19908;-64
2022/08/18 10:43:02;;;;;;;;;;;23.00;77.00;;;;;;5048142;28;19917;-65
2022/08/18 10:45:33;;;;;;;;;;;23.00;77.10;;;;;;5049340;28;19920;-65
2022/08/18 10:48:18;;;;;;;;;;;23.00;77.60;;;;;;5057276;28;19924;-65
2022/08/18 10:50:43;;;;;;;;;;;23.10;76.80;;;;;;5060961;28;19954;-65
2022/08/18 10:53:18;;;;;;;;;;;23.10;77.00;;;;;;5067757;28;20373;-65
2022/08/18 10:55:49;;;;;;;;;;;23.20;76.60;;;;;;5067490;28;19917;-65
2022/08/18 10:58:25;;;;;;;;;;;23.20;76.50;;;;;;5067313;28;19979;-65
2022/08/18 11:00:53;;;;;;;;;;;23.30;76.60;;;;;;5067142;28;19920;-65
2022/08/18 11:03:38;;;;;;;;;;;23.30;76.30;;;;;;5052957;28;20279;-64
2022/08/18 11:06:05;;;;;;;;;;;23.30;76.10;;;;;;5048249;28;20377;-65
2022/08/18 11:08:33;;;;;;;;;;;23.40;76.20;;;;;;5051375;28;19947;-65
2022/08/18 11:11:04;;;;;;;;;;;23.50;75.70;;;;;;5032762;28;19913;-65
2022/08/18 11:13:34;;;;;;;;;;;23.60;75.90;;;;;;5048000;28;20433;-65
2022/08/18 11:16:18;;;;;;;;;;;23.70;75.20;;;;;;5051936;28;19966;-65
2022/08/18 11:18:43;;;;;;;;;;;23.80;75.20;;;;;;5048979;28;19927;-65
2022/08/18 11:21:28;;;;;;;;;;;23.80;74.90;;;;;;5050667;28;19921;-65
2022/08/18 11:24:02;;;;;;;;;;;23.90;75.10;;;;;;5047734;28;19952;-65
2022/08/18 11:26:29;;;;;;;;;;;23.90;74.70;;;;;;5047793;28;20011;-65
2022/08/18 11:28:55;;;;;;;;;;;23.90;74.70;;;;;;5047813;28;19913;-65
2022/08/18 11:31:20;;;;;;;;;;;24.00;74.60;;;;;;5047051;28;19959;-65
2022/08/18 11:33:47;;;;;;;;;;;24.00;74.40;;;;;;5051046;28;20353;-65
2022/08/18 11:36:15;;;;;;;;;;;24.10;74.40;;;;;;5048409;28;19924;-65
2022/08/18 11:38:53;;;;;;;;;;;24.10;74.20;;;;;;5058451;28;19912;-65
2022/08/18 11:41:23;;;;;;;;;;;24.10;74.20;;;;;;5050087;28;20289;-65
2022/08/18 11:43:54;;;;;;;;;;;24.10;74.40;;;;;;5047541;28;20327;-65
2022/08/18 11:46:19;;;;;;;;;;;24.10;74.30;;;;;;5052862;28;20365;-65
2022/08/18 11:48:47;;;;;;;;;;;24.10;74.40;;;;;;5049511;28;19956;-65
2022/08/18 11:51:18;;;;;;;;;;;24.10;74.40;;;;;;5057659;28;19916;-65
2022/08/18 11:53:46;;;;;;;;;;;24.10;74.40;;;;;;5066424;28;19913;-65
2022/08/18 11:56:23;;;;;;;;;;;24.10;74.60;;;;;;5066135;28;19908;-65
2022/08/18 11:58:52;;;;;;;;;;;24.00;74.60;;;;;;5066000;28;19912;-65
2022/08/18 12:01:32;;;;;;;;;;;24.00;74.70;;;;;;5047839;28;20023;-65
2022/08/18 12:04:05;;;;;;;;;;;23.90;74.80;;;;;;5052040;28;19913;-65
2022/08/18 12:06:31;;;;;;;;;;;24.00;74.90;;;;;;5047601;28;19920;-65
2022/08/18 12:08:59;;;;;;;;;;;23.90;74.90;;;;;;5051334;28;19920;-65
2022/08/18 12:11:37;;;;;;;;;;;23.90;75.00;;;;;;5046250;28;19919;-65
2022/08/18 12:14:02;;;;;;;;;;;23.90;75.10;;;;;;5046480;28;19912;-65
2022/08/18 12:16:36;;;;;;;;;;;23.90;75.20;;;;;;5050215;28;20415;-65
2022/08/18 12:19:01;;;;;;;;;;;23.90;75.20;;;;;;5046389;28;19909;-65
2022/08/18 12:21:27;;;;;;;;;;;23.90;75.20;;;;;;5046295;28;19924;-65
2022/08/18 12:23:52;;;;;;;;;;;23.90;75.30;;;;;;5047372;28;20705;-65
2022/08/18 12:26:19;;;;;;;;;;;23.90;75.20;;;;;;5046533;28;19923;-64
2022/08/18 12:28:44;;;;;;;;;;;23.90;75.20;;;;;;5046533;28;20373;-65
2022/08/18 12:31:10;;;;;;;;;;;23.90;75.10;;;;;;5028190;28;19956;-65
2022/08/18 12:33:35;;;;;;;;;;;23.90;75.20;;;;;;5049002;28;19916;-65
2022/08/18 12:36:04;;;;;;;;;;;24.00;75.10;;;;;;5041298;28;19916;-65
2022/08/18 12:38:31;;;;;;;;;;;24.10;75.10;;;;;;5046279;28;19917;-65
2022/08/18 12:40:57;;;;;;;;;;;24.10;74.80;;;;;;5046313;28;19917;-65
2022/08/18 12:43:23;;;;;;;;;;;24.10;74.70;;;;;;5045720;28;20831;-65
2022/08/18 12:45:48;;;;;;;;;;;24.20;74.50;;;;;;5046921;28;19970;-65
2022/08/18 12:48:14;;;;;;;;;;;24.20;74.40;;;;;;5052611;28;19909;-65
2022/08/18 12:50:40;;;;;;;;;;;24.20;74.30;;;;;;5045938;28;19909;-65
2022/08/18 12:53:05;;;;;;;;;;;24.30;74.40;;;;;;5052873;28;19909;-65
2022/08/18 12:55:33;;;;;;;;;;;24.30;74.30;;;;;;5045749;28;20023;-65
2022/08/18 12:57:59;;;;;;;;;;;24.30;74.20;;;;;;5046676;28;20365;-65
2022/08/18 13:00:24;;;;;;;;;;;24.40;74.20;;;;;;5044120;28;19928;-65
2022/08/18 13:02:51;;;;;;;;;;;24.40;74.20;;;;;;5051528;28;19920;-65
2022/08/18 13:05:18;;;;;;;;;;;24.50;74.00;;;;;;5045803;28;20413;-65
2022/08/18 13:07:44;;;;;;;;;;;24.50;73.80;;;;;;5045812;28;19947;-65
2022/08/18 13:10:09;;;;;;;;;;;24.60;73.70;;;;;;5027997;28;19948;-65
2022/08/18 13:12:35;;;;;;;;;;;24.60;73.60;;;;;;5045140;28;19913;-65
2022/08/18 13:15:04;;;;;;;;;;;24.70;73.30;;;;;;5046278;28;20220;-65
2022/08/18 13:17:30;;;;;;;;;;;24.70;73.30;;;;;;5052133;28;19920;-65
2022/08/18 13:19:56;;;;;;;;;;;24.80;73.40;;;;;;5045721;28;19958;-65
2022/08/18 13:22:21;;;;;;;;;;;24.80;73.10;;;;;;5045074;28;19963;-65
2022/08/18 13:24:47;;;;;;;;;;;24.90;73.10;;;;;;5045050;28;19920;-65
2022/08/18 13:27:21;;;;;;;;;;;24.90;72.70;;;;;;5045087;28;19912;-65
2022/08/18 13:29:47;;;;;;;;;;;25.00;72.90;;;;;;5044231;28;20459;-65
2022/08/18 13:32:14;;;;;;;;;;;25.00;72.60;;;;;;5055891;28;19986;-65
2022/08/18 13:34:40;;;;;;;;;;;25.00;72.60;;;;;;5060651;28;19936;-65
2022/08/18 13:37:05;;;;;;;;;;;25.10;72.40;;;;;;5059670;28;19913;-65
2022/08/18 13:39:31;;;;;;;;;;;25.10;72.50;;;;;;5045442;28;20312;-65
2022/08/18 13:41:57;;;;;;;;;;;25.20;72.20;;;;;;5052676;28;19970;-65
2022/08/18 13:44:22;;;;;;;;;;;25.30;72.10;;;;;;5061061;28;19909;-65
2022/08/18 13:46:50;;;;;;;;;;;25.30;71.90;;;;;;5062511;28;20019;-65
2022/08/18 13:49:17;;;;;;;;;;;25.40;71.70;;;;;;5060081;28;19974;-65
2022/08/18 13:51:44;;;;;;;;;;;25.60;71.50;;;;;;5059428;28;19912;-65
2022/08/18 13:54:13;;;;;;;;;;;25.60;71.30;;;;;;5060951;28;19912;-65
2022/08/18 13:56:38;;;;;;;;;;;25.70;71.20;;;;;;5067089;28;20383;-65
2022/08/18 13:59:04;;;;;;;;;;;25.80;70.60;;;;;;5065475;28;19966;-65
2022/08/18 14:01:30;;;;;;;;;;;25.90;70.60;;;;;;5064403;28;20470;-65
2022/08/18 14:03:56;;;;;;;;;;;25.90;70.50;;;;;;5062597;28;19912;-65
2022/08/18 14:06:22;;;;;;;;;;;25.90;70.50;;;;;;5034535;28;19925;-65
2022/08/18 14:08:48;;;;;;;;;;;26.00;70.40;;;;;;5051799;28;19924;-68
2022/08/18 14:11:13;;;;;;;;;;;26.00;70.30;;;;;;5057679;28;19912;-68
2022/08/18 14:13:40;;;;;;;;;;;26.00;70.30;;;;;;5053275;28;19919;-66
2022/08/18 14:16:06;;;;;;;;;;;26.00;70.20;;;;;;5049095;28;20425;-65
2022/08/18 14:18:32;;;;;;;;;;;26.00;70.30;;;;;;5047796;28;19928;-65
2022/08/18 14:28:54;;;;;;;;;;;26.30;69.50;;;;;;5048665;28;19920;-66
2022/08/18 14:31:20;;;;;;;;;;;26.40;69.60;;;;;;5049451;28;20578;-65
2022/08/18 14:33:45;;;;;;;;;;;26.40;69.60;;;;;;5057730;28;20338;-65
2022/08/18 14:36:12;;;;;;;;;;;26.40;69.70;;;;;;5057226;28;19967;-65
2022/08/18 14:38:37;;;;;;;;;;;26.30;69.80;;;;;;5059270;28;19913;-65
2022/08/18 14:41:04;;;;;;;;;;;26.30;70.00;;;;;;5056905;28;20495;-65
2022/08/18 14:43:30;;;;;;;;;;;26.30;69.90;;;;;;5067891;28;19912;-65
2022/08/18 14:45:56;;;;;;;;;;;26.30;70.00;;;;;;5061426;28;19909;-65
2022/08/18 14:48:21;;;;;;;;;;;26.30;70.10;;;;;;5058338;28;19973;-65
2022/08/18 14:50:49;;;;;;;;;;;26.30;70.10;;;;;;5059918;28;20568;-65
2022/08/18 14:53:15;;;;;;;;;;;26.40;69.70;;;;;;5049732;28;19916;-65
2022/08/18 14:55:41;;;;;;;;;;;26.50;69.70;;;;;;5047962;28;19983;-65